Wetterdaten: Donnerstag, 02.08.2012
Datum Zeit Temperatur Luftfeuchte Regen Wind Richtung Richtung Taupunkt Windchill Windben
02.08.2012 00:00 16,7 C 73 % 0,0 l/m 0,0 km/h (0 Bft) S-SO 157 11,8 C 16,5 C 0,0 km/h (0 Bft)
02.08.2012 00:05 16,3 C 74 % 0,0 l/m 0,2 km/h (0 Bft) O-NO 67 11,7 C 16,2 C 0,0 km/h (0 Bft)
02.08.2012 00:10 16,1 C 74 % 0,0 l/m 0,2 km/h (0 Bft) N-NO 22 11,5 C 16,0 C 0,0 km/h (0 Bft)
02.08.2012 00:15 16,1 C 75 % 0,0 l/m 0,0 km/h (0 Bft) S-SW 202 11,7 C 15,8 C 0,0 km/h (0 Bft)
02.08.2012 00:20 15,9 C 76 % 0,0 l/m 0,0 km/h (0 Bft) W 270 11,7 C 15,7 C 0,0 km/h (0 Bft)
02.08.2012 00:25 15,8 C 78 % 0,0 l/m 0,5 km/h (0 Bft) N 360 12,0 C 15,4 C 2,3 km/h (1 Bft)
02.08.2012 00:30 15,7 C 77 % 0,0 l/m 0,5 km/h (0 Bft) W-NW 292 11,7 C 15,4 C 0,0 km/h (0 Bft)
02.08.2012 00:35 15,6 C 77 % 0,0 l/m 0,2 km/h (0 Bft) O 90 11,6 C 15,4 C 0,0 km/h (0 Bft)
02.08.2012 00:40 15,5 C 77 % 0,0 l/m 0,0 km/h (0 Bft) W-SW 247 11,5 C 15,4 C 0,0 km/h (0 Bft)
02.08.2012 00:45 15,7 C 79 % 0,0 l/m 0,0 km/h (0 Bft) NW 315 12,1 C 15,3 C 0,0 km/h (0 Bft)
02.08.2012 00:50 15,5 C 78 % 0,0 l/m 0,0 km/h (0 Bft) W-SW 247 11,7 C 15,4 C 0,0 km/h (0 Bft)
02.08.2012 00:55 15,9 C 79 % 0,0 l/m 0,2 km/h (0 Bft) N-NO 22 12,3 C 15,3 C 0,0 km/h (0 Bft)
02.08.2012 01:00 16,0 C 78 % 0,0 l/m 0,2 km/h (0 Bft) N 360 12,2 C 15,3 C 0,0 km/h (0 Bft)
02.08.2012 01:05 15,9 C 77 % 0,0 l/m 0,0 km/h (0 Bft) N-NO 22 11,9 C 15,3 C 0,0 km/h (0 Bft)
02.08.2012 01:10 15,7 C 77 % 0,0 l/m 0,0 km/h (0 Bft) NW 315 11,7 C 15,2 C 0,0 km/h (0 Bft)
02.08.2012 01:15 15,2 C 77 % 0,0 l/m 0,0 km/h (0 Bft) S 180 11,2 C 15,1 C 0,0 km/h (0 Bft)
02.08.2012 01:20 15,1 C 78 % 0,0 l/m 0,0 km/h (0 Bft) O-SO 112 11,3 C 15,0 C 0,0 km/h (0 Bft)
02.08.2012 01:25 15,3 C 79 % 0,0 l/m 0,2 km/h (0 Bft) N-NW 337 11,7 C 14,9 C 0,0 km/h (0 Bft)
02.08.2012 01:30 15,1 C 79 % 0,0 l/m 0,5 km/h (0 Bft) N 360 11,5 C 14,9 C 0,0 km/h (0 Bft)
02.08.2012 01:35 15,1 C 80 % 0,0 l/m 0,3 km/h (0 Bft) NO 45 11,7 C 14,9 C 0,0 km/h (0 Bft)
02.08.2012 01:40 14,8 C 79 % 0,0 l/m 0,0 km/h (0 Bft) W-SW 247 11,2 C 14,7 C 0,0 km/h (0 Bft)
02.08.2012 01:45 14,6 C 79 % 0,0 l/m 0,0 km/h (0 Bft) S-SW 202 11,0 C 14,5 C 0,0 km/h (0 Bft)
02.08.2012 01:50 14,4 C 79 % 0,0 l/m 0,0 km/h (0 Bft) S 180 10,8 C 14,4 C 0,0 km/h (0 Bft)
02.08.2012 01:55 14,0 C 80 % 0,0 l/m 0,0 km/h (0 Bft) N 360 10,6 C 14,0 C 0,0 km/h (0 Bft)
02.08.2012 02:00 13,9 C 82 % 0,0 l/m 0,0 km/h (0 Bft) S 180 10,9 C 13,7 C 0,0 km/h (0 Bft)
02.08.2012 02:05 13,8 C 83 % 0,0 l/m 0,0 km/h (0 Bft) N 360 11,0 C 13,5 C 0,0 km/h (0 Bft)
02.08.2012 02:10 14,1 C 83 % 0,0 l/m 0,0 km/h (0 Bft) N-NW 337 11,3 C 13,5 C 0,0 km/h (0 Bft)
02.08.2012 02:15 14,2 C 82 % 0,0 l/m 0,2 km/h (0 Bft) W-NW 292 11,2 C 13,7 C 0,0 km/h (0 Bft)
02.08.2012 02:20 14,5 C 81 % 0,0 l/m 0,2 km/h (0 Bft) W 270 11,3 C 13,9 C 0,0 km/h (0 Bft)
02.08.2012 02:25 14,6 C 79 % 0,0 l/m 0,2 km/h (0 Bft) O 90 11,0 C 14,2 C 0,0 km/h (0 Bft)
02.08.2012 02:30 14,6 C 78 % 0,0 l/m 0,0 km/h (0 Bft) O-NO 67 10,8 C 14,3 C 0,0 km/h (0 Bft)
02.08.2012 02:35 14,4 C 78 % 0,0 l/m 0,0 km/h (0 Bft) S 180 10,6 C 14,4 C 0,0 km/h (0 Bft)
02.08.2012 02:40 14,3 C 78 % 0,0 l/m 0,0 km/h (0 Bft) N-NO 22 10,5 C 14,4 C 0,0 km/h (0 Bft)
02.08.2012 02:45 14,4 C 78 % 0,0 l/m 0,0 km/h (0 Bft) N-NW 337 10,6 C 14,6 C 0,0 km/h (0 Bft)
02.08.2012 02:50 14,7 C 77 % 0,0 l/m 0,2 km/h (0 Bft) O-SO 112 10,7 C 14,9 C 0,0 km/h (0 Bft)
02.08.2012 02:55 15,4 C 76 % 0,0 l/m 0,2 km/h (0 Bft) S 180 11,2 C 15,4 C 0,0 km/h (0 Bft)
02.08.2012 03:00 16,0 C 72 % 0,0 l/m 2,4 km/h (1 Bft) O-SO 112 11,0 C 15,9 C 15,4 km/h (3 Bft)
02.08.2012 03:05 17,5 C 67 % 0,0 l/m 10,3 km/h (2 Bft) SO 135 11,8 C 16,1 C 17,9 km/h (3 Bft)
02.08.2012 03:10 18,1 C 67 % 0,0 l/m 14,3 km/h (3 Bft) SO 135 12,3 C 15,9 C 38,1 km/h (5 Bft)
02.08.2012 03:15 18,5 C 67 % 0,0 l/m 14,2 km/h (3 Bft) SO 135 12,4 C 16,6 C 17,4 km/h (3 Bft)
02.08.2012 03:20 18,6 C 68 % 0,0 l/m 14,3 km/h (3 Bft) S 180 12,6 C 16,7 C 13,7 km/h (3 Bft)
02.08.2012 03:25 18,7 C 69 % 0,0 l/m 13,5 km/h (3 Bft) S-SO 157 12,9 C 16,9 C 16,4 km/h (3 Bft)
02.08.2012 03:30 19,0 C 69 % 0,0 l/m 14,3 km/h (3 Bft) SO 135 13,2 C 16,8 C 20,6 km/h (4 Bft)
02.08.2012 03:35 18,9 C 70 % 0,0 l/m 16,1 km/h (3 Bft) S-SO 157 13,3 C 16,4 C 14,0 km/h (3 Bft)
02.08.2012 03:40 19,0 C 70 % 0,0 l/m 15,3 km/h (3 Bft) O-SO 112 13,4 C 16,6 C 27,7 km/h (4 Bft)
02.08.2012 03:45 19,0 C 70 % 0,0 l/m 14,3 km/h (3 Bft) SO 135 13,4 C 16,8 C 22,7 km/h (4 Bft)
02.08.2012 03:50 19,0 C 70 % 0,0 l/m 15,0 km/h (3 Bft) O-SO 112 13,4 C 16,6 C 19,3 km/h (3 Bft)
02.08.2012 03:55 18,9 C 70 % 0,0 l/m 14,5 km/h (3 Bft) O-SO 112 13,3 C 16,6 C 19,3 km/h (3 Bft)
02.08.2012 04:00 19,0 C 69 % 0,0 l/m 13,4 km/h (3 Bft) O-SO 112 13,2 C 16,9 C 23,2 km/h (4 Bft)
02.08.2012 04:05 19,0 C 68 % 0,0 l/m 12,7 km/h (3 Bft) O-SO 112 13,0 C 17,0 C 11,9 km/h (2 Bft)
02.08.2012 04:10 19,1 C 67 % 0,0 l/m 12,1 km/h (2 Bft) SO 135 12,8 C 17,2 C 10,3 km/h (2 Bft)
02.08.2012 04:15 18,9 C 67 % 0,0 l/m 10,8 km/h (2 Bft) SO 135 12,6 C 17,6 C 8,0 km/h (2 Bft)
02.08.2012 04:20 19,0 C 65 % 0,0 l/m 10,0 km/h (2 Bft) SO 135 12,3 C 17,9 C 10,9 km/h (2 Bft)
02.08.2012 04:25 18,8 C 65 % 0,0 l/m 8,2 km/h (2 Bft) O 90 12,1 C 18,5 C 10,8 km/h (2 Bft)
02.08.2012 04:30 18,8 C 65 % 0,0 l/m 8,2 km/h (2 Bft) O-SO 112 12,1 C 18,4 C 17,4 km/h (3 Bft)
02.08.2012 04:35 18,6 C 65 % 0,0 l/m 7,7 km/h (2 Bft) O-SO 112 11,9 C 18,5 C 10,6 km/h (2 Bft)
02.08.2012 04:40 18,5 C 66 % 0,0 l/m 6,6 km/h (2 Bft) O-SO 112 12,0 C 19,0 C 6,3 km/h (2 Bft)
02.08.2012 04:45 18,1 C 66 % 0,0 l/m 5,5 km/h (1 Bft) O-SO 112 11,6 C 18,9 C 5,3 km/h (1 Bft)
02.08.2012 04:50 18,1 C 67 % 0,0 l/m 4,3 km/h (1 Bft) N-NO 22 11,9 C 18,7 C 3,2 km/h (1 Bft)
02.08.2012 04:55 17,9 C 67 % 0,0 l/m 2,6 km/h (1 Bft) O 90 11,7 C 18,4 C 0,0 km/h (0 Bft)
02.08.2012 05:00 17,5 C 67 % 0,0 l/m 1,6 km/h (1 Bft) N-NO 22 11,3 C 18,2 C 0,0 km/h (0 Bft)
02.08.2012 05:05 17,2 C 69 % 0,0 l/m 0,5 km/h (0 Bft) W-NW 292 11,5 C 17,6 C 0,0 km/h (0 Bft)
02.08.2012 05:10 17,2 C 69 % 0,0 l/m 0,5 km/h (0 Bft) N 360 11,5 C 17,4 C 2,1 km/h (1 Bft)
02.08.2012 05:15 17,2 C 69 % 0,0 l/m 1,3 km/h (1 Bft) N 360 11,5 C 17,1 C 2,7 km/h (1 Bft)
02.08.2012 05:20 16,8 C 69 % 0,0 l/m 1,3 km/h (1 Bft) N 360 11,1 C 16,9 C 0,0 km/h (0 Bft)
02.08.2012 05:25 16,7 C 70 % 0,0 l/m 0,5 km/h (0 Bft) N-NO 22 11,2 C 16,6 C 0,0 km/h (0 Bft)
02.08.2012 05:30 16,7 C 70 % 0,0 l/m 0,2 km/h (0 Bft) N-NO 22 11,2 C 16,5 C 0,0 km/h (0 Bft)
02.08.2012 05:35 16,7 C 70 % 0,0 l/m 0,5 km/h (0 Bft) N 360 11,2 C 16,4 C 0,0 km/h (0 Bft)
02.08.2012 05:40 16,2 C 70 % 0,0 l/m 0,5 km/h (0 Bft) N-NO 22 10,7 C 16,3 C 0,0 km/h (0 Bft)
02.08.2012 05:45 15,8 C 72 % 0,0 l/m 0,3 km/h (0 Bft) O-SO 112 10,8 C 15,9 C 2,3 km/h (1 Bft)
02.08.2012 05:50 15,7 C 73 % 0,0 l/m 0,3 km/h (0 Bft) N-NO 22 10,9 C 15,8 C 0,0 km/h (0 Bft)
02.08.2012 05:55 15,6 C 73 % 0,0 l/m 0,6 km/h (0 Bft) N 360 10,8 C 15,6 C 1,6 km/h (1 Bft)
02.08.2012 06:00 15,9 C 73 % 0,0 l/m 0,8 km/h (0 Bft) N 360 11,1 C 15,6 C 0,0 km/h (0 Bft)
02.08.2012 06:05 15,3 C 74 % 0,0 l/m 0,5 km/h (0 Bft) O 90 10,7 C 15,4 C 0,0 km/h (0 Bft)
02.08.2012 06:10 15,2 C 76 % 0,0 l/m 0,2 km/h (0 Bft) N 360 11,0 C 15,2 C 0,0 km/h (0 Bft)
02.08.2012 06:15 15,0 C 75 % 0,0 l/m 0,3 km/h (0 Bft) W-SW 247 10,6 C 15,1 C 0,0 km/h (0 Bft)
02.08.2012 06:20 14,8 C 76 % 0,0 l/m 0,2 km/h (0 Bft) N 360 10,6 C 14,9 C 0,0 km/h (0 Bft)
02.08.2012 06:25 14,7 C 77 % 0,0 l/m 0,0 km/h (0 Bft) W-SW 247 10,7 C 14,7 C 0,0 km/h (0 Bft)
02.08.2012 06:30 14,8 C 77 % 0,0 l/m 0,2 km/h (0 Bft) N-NO 22 10,8 C 14,6 C 1,6 km/h (1 Bft)
02.08.2012 06:35 15,3 C 77 % 0,0 l/m 0,3 km/h (0 Bft) NO 45 11,3 C 15,1 C 0,0 km/h (0 Bft)
02.08.2012 06:40 15,4 C 77 % 0,0 l/m 0,3 km/h (0 Bft) NO 45 11,4 C 15,8 C 0,0 km/h (0 Bft)
02.08.2012 06:45 16,5 C 75 % 0,0 l/m 0,3 km/h (0 Bft) N-NW 337 12,1 C 16,5 C 2,3 km/h (1 Bft)
02.08.2012 06:50 16,6 C 75 % 0,0 l/m 0,5 km/h (0 Bft) N 360 12,1 C 17,1 C 0,0 km/h (0 Bft)
02.08.2012 06:55 17,0 C 74 % 0,0 l/m 0,3 km/h (0 Bft) O-SO 112 12,3 C 17,9 C 0,0 km/h (0 Bft)
02.08.2012 07:00 17,4 C 73 % 0,0 l/m 0,0 km/h (0 Bft) W-SW 247 12,5 C 18,1 C 0,0 km/h (0 Bft)
02.08.2012 07:05 17,3 C 72 % 0,0 l/m 0,0 km/h (0 Bft) N-NW 337 12,2 C 18,5 C 0,0 km/h (0 Bft)
02.08.2012 07:10 17,9 C 72 % 0,0 l/m 0,0 km/h (0 Bft) N-NO 22 12,8 C 18,8 C 0,0 km/h (0 Bft)
02.08.2012 07:15 19,5 C 71 % 0,0 l/m 0,2 km/h (0 Bft) N 360 14,1 C 19,6 C 0,0 km/h (0 Bft)
02.08.2012 07:20 20,7 C 69 % 0,0 l/m 0,5 km/h (0 Bft) N 360 14,8 C 20,6 C 2,1 km/h (1 Bft)
02.08.2012 07:25 21,9 C 67 % 0,0 l/m 0,5 km/h (0 Bft) S 180 15,7 C 22,2 C 0,0 km/h (0 Bft)
02.08.2012 07:30 21,0 C 65 % 0,0 l/m 0,3 km/h (0 Bft) N-NO 22 14,2 C 23,2 C 0,0 km/h (0 Bft)
02.08.2012 07:35 19,7 C 67 % 0,0 l/m 0,2 km/h (0 Bft) N 360 13,4 C 23,9 C 2,1 km/h (1 Bft)
02.08.2012 07:40 20,8 C 67 % 0,0 l/m 0,3 km/h (0 Bft) N-NO 22 14,4 C 24,4 C 0,0 km/h (0 Bft)
02.08.2012 07:45 23,1 C 60 % 0,0 l/m 0,6 km/h (0 Bft) S 180 14,9 C 25,0 C 0,0 km/h (0 Bft)
02.08.2012 07:50 23,8 C 58 % 0,0 l/m 0,5 km/h (0 Bft) W-SW 247 15,0 C 25,4 C 0,0 km/h (0 Bft)
02.08.2012 07:55 24,3 C 57 % 0,0 l/m 0,6 km/h (0 Bft) N-NW 337 15,2 C 26,0 C 0,0 km/h (0 Bft)
02.08.2012 08:00 24,7 C 56 % 0,0 l/m 0,6 km/h (0 Bft) N-NO 22 15,3 C 26,6 C 2,1 km/h (1 Bft)
02.08.2012 08:05 25,4 C 56 % 0,0 l/m 0,3 km/h (0 Bft) N 360 16,0 C 27,2 C 0,0 km/h (0 Bft)
02.08.2012 08:10 25,7 C 55 % 0,0 l/m 0,2 km/h (0 Bft) O-SO 112 16,0 C 27,9 C 0,0 km/h (0 Bft)
02.08.2012 08:15 26,8 C 52 % 0,0 l/m 0,2 km/h (0 Bft) N-NW 337 16,1 C 28,5 C 2,3 km/h (1 Bft)
02.08.2012 08:20 25,8 C 54 % 0,0 l/m 0,2 km/h (0 Bft) S 180 15,8 C 28,5 C 1,8 km/h (1 Bft)
02.08.2012 08:25 26,7 C 50 % 0,0 l/m 0,6 km/h (0 Bft) SO 135 15,4 C 28,6 C 2,4 km/h (1 Bft)
02.08.2012 08:30 27,2 C 50 % 0,0 l/m 0,5 km/h (0 Bft) W-SW 247 15,9 C 29,1 C 0,0 km/h (0 Bft)
02.08.2012 08:35 27,1 C 49 % 0,0 l/m 0,0 km/h (0 Bft) N 360 15,7 C 30,2 C 0,0 km/h (0 Bft)
02.08.2012 08:40 25,6 C 53 % 0,0 l/m 0,0 km/h (0 Bft) NO 45 15,3 C 30,2 C 0,0 km/h (0 Bft)
02.08.2012 08:45 25,0 C 52 % 0,0 l/m 0,3 km/h (0 Bft) NO 45 15,4 C 28,5 C 0,0 km/h (0 Bft)
02.08.2012 08:50 25,2 C 50 % 0,0 l/m 0,3 km/h (0 Bft) O-SO 112 15,9 C 29,4 C 0,0 km/h (0 Bft)
02.08.2012 08:55 25,5 C 48 % 0,0 l/m 0,2 km/h (0 Bft) O-SO 112 15,4 C 30,2 C 0,0 km/h (0 Bft)
02.08.2012 09:00 25,6 C 46 % 0,0 l/m 0,5 km/h (0 Bft) N-NW 337 15,6 C 30,7 C 0,0 km/h (0 Bft)
02.08.2012 09:05 26,1 C 44 % 0,0 l/m 0,8 km/h (0 Bft) S 180 15,9 C 31,3 C 0,0 km/h (0 Bft)
02.08.2012 09:10 26,3 C 46 % 0,0 l/m 1,1 km/h (1 Bft) O-SO 112 16,9 C 31,6 C 1,9 km/h (1 Bft)
02.08.2012 09:15 26,3 C 45 % 0,0 l/m 1,6 km/h (1 Bft) SO 135 15,1 C 31,4 C 0,0 km/h (0 Bft)
02.08.2012 09:20 26,1 C 47 % 0,0 l/m 1,6 km/h (1 Bft) SO 135 14,4 C 30,0 C 1,9 km/h (1 Bft)
02.08.2012 09:25 25,3 C 51 % 0,0 l/m 0,6 km/h (0 Bft) S-SO 157 14,4 C 28,2 C 0,0 km/h (0 Bft)
02.08.2012 09:30 24,9 C 55 % 0,0 l/m 0,3 km/h (0 Bft) O-SO 112 15,2 C 27,5 C 0,0 km/h (0 Bft)
02.08.2012 09:35 24,4 C 58 % 0,0 l/m 0,0 km/h (0 Bft) O-NO 67 15,6 C 26,9 C 0,0 km/h (0 Bft)
02.08.2012 09:40 24,5 C 56 % 0,0 l/m 0,3 km/h (0 Bft) O-SO 112 15,9 C 26,6 C 0,0 km/h (0 Bft)
02.08.2012 09:45 25,1 C 49 % 0,0 l/m 1,6 km/h (1 Bft) S-SW 202 15,0 C 27,0 C 2,9 km/h (1 Bft)
02.08.2012 09:50 25,2 C 49 % 0,0 l/m 2,1 km/h (1 Bft) O-SO 112 14,6 C 27,4 C 2,9 km/h (1 Bft)
02.08.2012 09:55 25,9 C 47 % 0,0 l/m 2,1 km/h (1 Bft) S 180 15,9 C 28,0 C 5,0 km/h (1 Bft)
02.08.2012 10:00 26,7 C 42 % 0,0 l/m 2,4 km/h (1 Bft) S 180 15,0 C 29,0 C 3,2 km/h (1 Bft)
02.08.2012 10:05 26,9 C 43 % 0,0 l/m 3,2 km/h (1 Bft) S 180 15,1 C 29,7 C 1,6 km/h (1 Bft)
02.08.2012 10:10 26,9 C 41 % 0,0 l/m 3,4 km/h (1 Bft) W 270 14,0 C 30,2 C 3,4 km/h (1 Bft)
02.08.2012 10:15 26,8 C 38 % 0,0 l/m 3,1 km/h (1 Bft) W-NW 292 12,6 C 30,2 C 2,1 km/h (1 Bft)
02.08.2012 10:20 26,8 C 38 % 0,0 l/m 2,7 km/h (1 Bft) W-NW 292 12,3 C 30,4 C 2,6 km/h (1 Bft)
02.08.2012 10:25 27,1 C 40 % 0,0 l/m 2,6 km/h (1 Bft) SO 135 13,7 C 30,6 C 3,1 km/h (1 Bft)
02.08.2012 10:30 27,4 C 37 % 0,0 l/m 3,4 km/h (1 Bft) O-SO 112 12,9 C 30,5 C 5,1 km/h (1 Bft)
02.08.2012 10:35 27,9 C 39 % 0,0 l/m 3,5 km/h (1 Bft) S-SO 157 14,2 C 30,5 C 2,6 km/h (1 Bft)
02.08.2012 10:40 28,3 C 38 % 0,0 l/m 3,4 km/h (1 Bft) S 180 13,9 C 31,0 C 6,9 km/h (2 Bft)
02.08.2012 10:45 28,2 C 38 % 0,0 l/m 4,3 km/h (1 Bft) SO 135 13,1 C 30,4 C 6,3 km/h (2 Bft)
02.08.2012 10:50 28,3 C 39 % 0,0 l/m 4,7 km/h (1 Bft) S 180 14,0 C 30,2 C 3,9 km/h (1 Bft)
02.08.2012 10:55 28,5 C 39 % 0,0 l/m 4,5 km/h (1 Bft) O-SO 112 13,4 C 30,2 C 6,8 km/h (2 Bft)
02.08.2012 11:00 28,8 C 40 % 0,0 l/m 4,5 km/h (1 Bft) S 180 14,1 C 30,2 C 8,7 km/h (2 Bft)
02.08.2012 11:05 28,4 C 39 % 0,0 l/m 4,3 km/h (1 Bft) S-SW 202 13,1 C 30,1 C 6,4 km/h (2 Bft)
02.08.2012 11:10 28,6 C 39 % 0,0 l/m 3,9 km/h (1 Bft) S-SO 157 13,3 C 30,2 C 5,3 km/h (1 Bft)
02.08.2012 11:15 28,3 C 41 % 0,0 l/m 3,2 km/h (1 Bft) S 180 13,8 C 30,0 C 2,1 km/h (1 Bft)
02.08.2012 11:20 27,9 C 39 % 0,0 l/m 2,4 km/h (1 Bft) N-NW 337 12,6 C 30,2 C 2,6 km/h (1 Bft)
02.08.2012 11:25 28,9 C 40 % 0,0 l/m 1,9 km/h (1 Bft) N 360 13,9 C 30,9 C 4,5 km/h (1 Bft)
02.08.2012 11:30 29,2 C 40 % 0,0 l/m 2,6 km/h (1 Bft) O-SO 112 14,2 C 31,2 C 3,5 km/h (1 Bft)
02.08.2012 11:35 29,0 C 38 % 0,0 l/m 1,9 km/h (1 Bft) NO 45 13,2 C 31,7 C 0,0 km/h (0 Bft)
02.08.2012 11:40 28,8 C 40 % 0,0 l/m 1,6 km/h (1 Bft) W-NW 292 13,8 C 32,0 C 0,0 km/h (0 Bft)
02.08.2012 11:45 28,7 C 40 % 0,0 l/m 2,3 km/h (1 Bft) S 180 13,7 C 31,8 C 4,3 km/h (1 Bft)
02.08.2012 11:50 28,7 C 40 % 0,0 l/m 2,9 km/h (1 Bft) S-SW 202 13,7 C 31,1 C 3,5 km/h (1 Bft)
02.08.2012 11:55 28,5 C 40 % 0,0 l/m 2,9 km/h (1 Bft) S 180 13,6 C 30,8 C 3,2 km/h (1 Bft)
02.08.2012 12:00 29,1 C 38 % 0,0 l/m 2,7 km/h (1 Bft) O 90 13,3 C 31,3 C 2,4 km/h (1 Bft)
02.08.2012 12:05 29,0 C 37 % 0,0 l/m 3,4 km/h (1 Bft) S-SW 202 12,8 C 31,4 C 1,6 km/h (1 Bft)
02.08.2012 12:10 29,2 C 37 % 0,0 l/m 3,7 km/h (1 Bft) SO 135 13,0 C 31,4 C 3,7 km/h (1 Bft)
02.08.2012 12:15 28,4 C 38 % 0,0 l/m 2,7 km/h (1 Bft) S 180 12,7 C 31,7 C 3,2 km/h (1 Bft)
02.08.2012 12:20 28,4 C 40 % 0,0 l/m 2,7 km/h (1 Bft) SO 135 13,5 C 31,3 C 3,9 km/h (1 Bft)
02.08.2012 12:25 28,0 C 40 % 0,0 l/m 3,2 km/h (1 Bft) S-SO 157 13,1 C 29,9 C 2,4 km/h (1 Bft)
02.08.2012 12:30 28,6 C 40 % 0,0 l/m 2,9 km/h (1 Bft) NW 315 13,7 C 30,4 C 2,6 km/h (1 Bft)
02.08.2012 12:35 27,9 C 40 % 0,0 l/m 2,7 km/h (1 Bft) S-SO 157 13,0 C 30,4 C 3,7 km/h (1 Bft)
02.08.2012 12:40 28,5 C 40 % 0,0 l/m 2,7 km/h (1 Bft) O-SO 112 13,6 C 29,9 C 7,6 km/h (2 Bft)
02.08.2012 12:45 28,0 C 39 % 0,0 l/m 3,7 km/h (1 Bft) SW 225 12,7 C 29,9 C 4,7 km/h (1 Bft)
02.08.2012 12:50 27,7 C 41 % 0,0 l/m 4,0 km/h (1 Bft) S 180 13,2 C 29,8 C 4,2 km/h (1 Bft)
02.08.2012 12:55 27,7 C 42 % 0,0 l/m 3,1 km/h (1 Bft) S-SO 157 13,6 C 29,5 C 2,3 km/h (1 Bft)
02.08.2012 13:00 27,3 C 43 % 0,0 l/m 3,7 km/h (1 Bft) S 180 13,6 C 29,1 C 7,1 km/h (2 Bft)
02.08.2012 13:05 26,7 C 44 % 0,0 l/m 3,9 km/h (1 Bft) SW 225 13,4 C 28,3 C 3,4 km/h (1 Bft)
02.08.2012 13:10 26,7 C 44 % 0,0 l/m 4,0 km/h (1 Bft) S-SW 202 13,4 C 28,1 C 6,0 km/h (2 Bft)
02.08.2012 13:15 26,9 C 47 % 0,0 l/m 3,5 km/h (1 Bft) SW 225 14,6 C 28,2 C 0,0 km/h (0 Bft)
02.08.2012 13:20 26,8 C 47 % 0,0 l/m 3,1 km/h (1 Bft) S-SW 202 14,5 C 28,3 C 3,2 km/h (1 Bft)
02.08.2012 13:25 27,3 C 46 % 0,0 l/m 3,2 km/h (1 Bft) S 180 14,6 C 28,3 C 2,6 km/h (1 Bft)
02.08.2012 13:30 28,1 C 45 % 0,0 l/m 3,5 km/h (1 Bft) O-NO 67 15,0 C 28,8 C 2,3 km/h (1 Bft)
02.08.2012 13:35 28,6 C 41 % 0,0 l/m 3,4 km/h (1 Bft) S 180 14,0 C 29,8 C 4,0 km/h (1 Bft)
02.08.2012 13:40 28,9 C 40 % 0,0 l/m 3,4 km/h (1 Bft) O 90 13,9 C 30,2 C 2,3 km/h (1 Bft)
02.08.2012 13:45 28,9 C 41 % 0,0 l/m 3,9 km/h (1 Bft) S-SW 202 14,3 C 30,4 C 5,0 km/h (1 Bft)
02.08.2012 13:50 28,3 C 39 % 0,0 l/m 3,5 km/h (1 Bft) N 360 13,0 C 30,5 C 5,1 km/h (1 Bft)
02.08.2012 13:55 29,1 C 38 % 0,0 l/m 1,9 km/h (1 Bft) O-SO 112 13,3 C 32,0 C 0,0 km/h (0 Bft)
02.08.2012 14:00 28,5 C 40 % 0,0 l/m 2,1 km/h (1 Bft) W-SW 247 13,6 C 32,4 C 3,1 km/h (1 Bft)
02.08.2012 14:05 28,2 C 41 % 0,0 l/m 4,2 km/h (1 Bft) W-SW 247 13,7 C 31,1 C 6,3 km/h (2 Bft)
02.08.2012 14:10 28,2 C 40 % 0,0 l/m 3,9 km/h (1 Bft) W-SW 247 13,3 C 30,8 C 4,7 km/h (1 Bft)
02.08.2012 14:15 28,1 C 39 % 0,0 l/m 3,1 km/h (1 Bft) S 180 12,8 C 30,6 C 2,6 km/h (1 Bft)
02.08.2012 14:20 27,9 C 38 % 0,0 l/m 3,7 km/h (1 Bft) NO 45 12,2 C 30,9 C 5,1 km/h (1 Bft)
02.08.2012 14:25 27,6 C 42 % 0,0 l/m 4,2 km/h (1 Bft) S 180 13,5 C 31,1 C 10,0 km/h (2 Bft)
02.08.2012 14:30 26,9 C 43 % 0,0 l/m 4,2 km/h (1 Bft) N 360 13,2 C 29,9 C 4,2 km/h (1 Bft)
02.08.2012 14:35 27,6 C 44 % 0,0 l/m 4,5 km/h (1 Bft) SO 135 14,2 C 29,3 C 4,2 km/h (1 Bft)
02.08.2012 14:40 28,4 C 41 % 0,0 l/m 4,2 km/h (1 Bft) SO 135 13,9 C 29,8 C 7,4 km/h (2 Bft)
02.08.2012 14:45 27,9 C 45 % 0,0 l/m 4,5 km/h (1 Bft) SO 135 14,8 C 29,9 C 7,7 km/h (2 Bft)
02.08.2012 14:50 28,2 C 42 % 0,0 l/m 5,0 km/h (1 Bft) O-SO 112 14,0 C 29,8 C 5,0 km/h (1 Bft)
02.08.2012 14:55 28,5 C 39 % 0,0 l/m 5,0 km/h (1 Bft) O-SO 112 13,2 C 30,4 C 5,6 km/h (1 Bft)
02.08.2012 15:00 28,7 C 41 % 0,0 l/m 4,8 km/h (1 Bft) SO 135 14,1 C 30,3 C 4,7 km/h (1 Bft)
02.08.2012 15:05 29,5 C 37 % 0,0 l/m 5,3 km/h (1 Bft) SO 135 13,3 C 31,3 C 10,3 km/h (2 Bft)
02.08.2012 15:10 29,4 C 40 % 0,0 l/m 6,0 km/h (2 Bft) SO 135 14,4 C 31,6 C 9,3 km/h (2 Bft)
02.08.2012 15:15 29,1 C 40 % 0,0 l/m 6,6 km/h (2 Bft) S-SO 157 14,1 C 30,8 C 6,1 km/h (2 Bft)
02.08.2012 15:20 29,8 C 40 % 0,0 l/m 6,0 km/h (2 Bft) NW 315 14,7 C 31,1 C 5,0 km/h (1 Bft)
02.08.2012 15:25 29,1 C 39 % 0,0 l/m 5,6 km/h (1 Bft) S-SW 202 13,7 C 31,2 C 5,0 km/h (1 Bft)
02.08.2012 15:30 27,4 C 43 % 0,0 l/m 5,5 km/h (1 Bft) O-SO 112 13,7 C 30,3 C 5,1 km/h (1 Bft)
02.08.2012 15:35 28,0 C 42 % 0,0 l/m 5,3 km/h (1 Bft) N 360 13,9 C 29,0 C 10,5 km/h (2 Bft)
02.08.2012 15:40 28,6 C 43 % 0,0 l/m 5,8 km/h (2 Bft) S-SO 157 14,8 C 29,3 C 6,9 km/h (2 Bft)
02.08.2012 15:45 29,1 C 39 % 0,0 l/m 5,6 km/h (1 Bft) SO 135 13,7 C 30,2 C 3,9 km/h (1 Bft)
02.08.2012 15:50 29,1 C 40 % 0,0 l/m 5,5 km/h (1 Bft) S-SO 157 14,1 C 30,5 C 6,6 km/h (2 Bft)
02.08.2012 15:55 29,6 C 39 % 0,0 l/m 4,8 km/h (1 Bft) S-SW 202 14,2 C 31,2 C 6,0 km/h (2 Bft)
02.08.2012 16:00 29,9 C 40 % 0,0 l/m 4,8 km/h (1 Bft) S 180 14,8 C 31,5 C 7,2 km/h (2 Bft)
02.08.2012 16:05 28,8 C 39 % 0,0 l/m 5,0 km/h (1 Bft) W 270 13,4 C 31,8 C 4,8 km/h (1 Bft)
02.08.2012 16:10 27,2 C 40 % 0,0 l/m 5,1 km/h (1 Bft) N 360 12,4 C 31,1 C 6,0 km/h (2 Bft)
02.08.2012 16:15 26,3 C 45 % 0,0 l/m 4,0 km/h (1 Bft) W 270 13,4 C 29,2 C 3,2 km/h (1 Bft)
02.08.2012 16:20 26,3 C 45 % 0,0 l/m 3,2 km/h (1 Bft) NO 45 13,4 C 28,4 C 0,0 km/h (0 Bft)
02.08.2012 16:25 27,7 C 44 % 0,0 l/m 2,4 km/h (1 Bft) N 360 14,3 C 29,2 C 3,9 km/h (1 Bft)
02.08.2012 16:30 26,7 C 45 % 0,0 l/m 1,6 km/h (1 Bft) W-NW 292 13,8 C 29,9 C 2,7 km/h (1 Bft)
02.08.2012 16:35 26,1 C 44 % 0,0 l/m 2,4 km/h (1 Bft) N-NW 337 12,9 C 29,1 C 0,0 km/h (0 Bft)
02.08.2012 16:40 25,7 C 46 % 0,0 l/m 2,9 km/h (1 Bft) N-NW 337 13,2 C 28,4 C 2,3 km/h (1 Bft)
02.08.2012 16:45 26,4 C 46 % 0,0 l/m 1,4 km/h (1 Bft) S 180 13,8 C 29,3 C 0,0 km/h (0 Bft)
02.08.2012 16:50 26,6 C 46 % 0,0 l/m 1,6 km/h (1 Bft) O-SO 112 14,0 C 30,4 C 3,5 km/h (1 Bft)
02.08.2012 16:55 26,5 C 48 % 0,0 l/m 3,9 km/h (1 Bft) O 90 14,6 C 30,8 C 4,0 km/h (1 Bft)
02.08.2012 17:00 26,3 C 46 % 0,0 l/m 4,7 km/h (1 Bft) O-SO 112 13,7 C 30,8 C 5,0 km/h (1 Bft)
02.08.2012 17:05 26,4 C 47 % 0,0 l/m 3,5 km/h (1 Bft) S 180 14,2 C 31,1 C 4,2 km/h (1 Bft)
02.08.2012 17:10 25,8 C 49 % 0,0 l/m 3,1 km/h (1 Bft) S-SO 157 14,3 C 30,7 C 5,5 km/h (1 Bft)
02.08.2012 17:15 25,7 C 51 % 0,0 l/m 3,2 km/h (1 Bft) S 180 14,8 C 29,1 C 3,4 km/h (1 Bft)
02.08.2012 17:20 25,4 C 51 % 0,0 l/m 4,0 km/h (1 Bft) S 180 14,5 C 28,5 C 5,1 km/h (1 Bft)
02.08.2012 17:25 25,2 C 52 % 0,0 l/m 3,4 km/h (1 Bft) SO 135 14,6 C 27,5 C 3,5 km/h (1 Bft)
02.08.2012 17:30 25,1 C 53 % 0,0 l/m 2,3 km/h (1 Bft) SO 135 14,8 C 27,3 C 2,3 km/h (1 Bft)
02.08.2012 17:35 25,0 C 54 % 0,0 l/m 1,9 km/h (1 Bft) O-SO 112 15,0 C 27,0 C 0,0 km/h (0 Bft)
02.08.2012 17:40 25,2 C 55 % 0,0 l/m 1,3 km/h (1 Bft) S 180 15,5 C 28,0 C 1,8 km/h (1 Bft)
02.08.2012 17:45 25,4 C 52 % 0,0 l/m 1,8 km/h (1 Bft) S-SW 202 14,8 C 29,4 C 2,4 km/h (1 Bft)
02.08.2012 17:50 25,4 C 49 % 0,0 l/m 2,6 km/h (1 Bft) S 180 13,9 C 29,9 C 2,3 km/h (1 Bft)
02.08.2012 17:55 25,4 C 50 % 0,0 l/m 2,4 km/h (1 Bft) SO 135 14,2 C 30,6 C 3,1 km/h (1 Bft)
02.08.2012 18:00 25,5 C 49 % 0,0 l/m 2,4 km/h (1 Bft) S 180 14,0 C 31,0 C 3,4 km/h (1 Bft)
02.08.2012 18:05 25,5 C 49 % 0,0 l/m 2,9 km/h (1 Bft) S-SO 157 14,0 C 31,3 C 4,7 km/h (1 Bft)
02.08.2012 18:10 25,3 C 49 % 0,0 l/m 3,4 km/h (1 Bft) W-NW 292 13,8 C 30,7 C 4,2 km/h (1 Bft)
02.08.2012 18:15 25,1 C 51 % 0,0 l/m 3,5 km/h (1 Bft) SW 225 14,2 C 29,8 C 4,7 km/h (1 Bft)
02.08.2012 18:20 25,0 C 49 % 0,0 l/m 3,5 km/h (1 Bft) S 180 13,5 C 28,7 C 2,6 km/h (1 Bft)
02.08.2012 18:25 24,5 C 53 % 0,0 l/m 2,6 km/h (1 Bft) S 180 14,3 C 27,5 C 3,4 km/h (1 Bft)
02.08.2012 18:30 24,4 C 52 % 0,0 l/m 1,8 km/h (1 Bft) S 180 13,9 C 27,1 C 2,1 km/h (1 Bft)
02.08.2012 18:35 24,2 C 53 % 0,0 l/m 1,4 km/h (1 Bft) O-SO 112 14,0 C 26,6 C 0,0 km/h (0 Bft)
02.08.2012 18:40 24,1 C 54 % 0,0 l/m 0,6 km/h (0 Bft) W-SW 247 14,2 C 26,3 C 0,0 km/h (0 Bft)
02.08.2012 18:45 23,8 C 55 % 0,0 l/m 0,3 km/h (0 Bft) SO 135 14,2 C 25,9 C 0,0 km/h (0 Bft)
02.08.2012 18:50 24,0 C 56 % 0,0 l/m 0,5 km/h (0 Bft) S-SO 157 14,7 C 26,3 C 2,9 km/h (1 Bft)
02.08.2012 18:55 24,2 C 56 % 0,0 l/m 0,8 km/h (0 Bft) S 180 14,9 C 27,1 C 0,0 km/h (0 Bft)
02.08.2012 19:00 24,0 C 56 % 0,0 l/m 1,4 km/h (1 Bft) S-SW 202 14,7 C 26,5 C 6,0 km/h (2 Bft)
02.08.2012 19:05 23,7 C 56 % 0,0 l/m 1,6 km/h (1 Bft) S 180 14,4 C 25,7 C 2,7 km/h (1 Bft)
02.08.2012 19:10 23,4 C 56 % 0,0 l/m 1,3 km/h (1 Bft) S-SW 202 14,1 C 25,1 C 0,0 km/h (0 Bft)
02.08.2012 19:15 23,1 C 57 % 0,0 l/m 0,3 km/h (0 Bft) O-SO 112 14,1 C 24,6 C 0,0 km/h (0 Bft)
02.08.2012 19:20 23,0 C 59 % 0,0 l/m 0,2 km/h (0 Bft) NO 45 14,5 C 24,4 C 0,0 km/h (0 Bft)
02.08.2012 19:25 22,6 C 62 % 0,0 l/m 0,0 km/h (0 Bft) N 360 14,9 C 23,9 C 0,0 km/h (0 Bft)
02.08.2012 19:30 22,4 C 62 % 0,0 l/m 0,0 km/h (0 Bft) NO 45 14,8 C 23,4 C 0,0 km/h (0 Bft)
02.08.2012 19:35 22,0 C 65 % 0,0 l/m 0,0 km/h (0 Bft) S-SO 157 15,1 C 23,0 C 0,0 km/h (0 Bft)
02.08.2012 19:40 21,9 C 67 % 0,0 l/m 0,0 km/h (0 Bft) NO 45 15,5 C 22,7 C 0,0 km/h (0 Bft)
02.08.2012 19:45 21,9 C 68 % 0,0 l/m 0,5 km/h (0 Bft) O-SO 112 15,7 C 22,6 C 4,2 km/h (1 Bft)
02.08.2012 19:50 21,7 C 68 % 0,0 l/m 2,1 km/h (1 Bft) SO 135 15,5 C 22,0 C 7,1 km/h (2 Bft)
02.08.2012 19:55 21,1 C 69 % 0,0 l/m 4,0 km/h (1 Bft) SO 135 15,2 C 20,8 C 5,0 km/h (1 Bft)
02.08.2012 20:00 20,5 C 72 % 0,0 l/m 5,0 km/h (1 Bft) NO 45 15,3 C 20,4 C 3,1 km/h (1 Bft)
02.08.2012 20:05 20,1 C 77 % 0,0 l/m 5,0 km/h (1 Bft) S-SO 157 15,9 C 19,6 C 5,3 km/h (1 Bft)
02.08.2012 20:10 19,5 C 81 % 0,0 l/m 3,5 km/h (1 Bft) W-NW 292 16,1 C 19,2 C 1,9 km/h (1 Bft)
02.08.2012 20:15 18,4 C 85 % 4,1 l/m 3,1 km/h (1 Bft) S-SW 202 15,8 C 18,5 C 5,8 km/h (2 Bft)
02.08.2012 20:20 18,2 C 86 % 0,0 l/m 3,2 km/h (1 Bft) N 360 15,8 C 18,1 C 7,1 km/h (2 Bft)
02.08.2012 20:25 18,2 C 88 % 0,7 l/m 3,2 km/h (1 Bft) N 360 16,2 C 18,1 C 4,7 km/h (1 Bft)
02.08.2012 20:30 18,0 C 88 % 0,0 l/m 2,6 km/h (1 Bft) N 360 16,0 C 17,9 C 3,2 km/h (1 Bft)
02.08.2012 20:35 17,9 C 88 % 0,0 l/m 1,0 km/h (0 Bft) W 270 15,9 C 17,9 C 0,0 km/h (0 Bft)
02.08.2012 20:40 17,8 C 89 % 0,0 l/m 0,5 km/h (0 Bft) N 360 16,0 C 17,9 C 2,1 km/h (1 Bft)
02.08.2012 20:45 17,6 C 89 % 0,0 l/m 0,3 km/h (0 Bft) SO 135 15,8 C 17,7 C 0,0 km/h (0 Bft)
02.08.2012 20:50 17,5 C 89 % 0,0 l/m 1,4 km/h (1 Bft) SO 135 15,7 C 17,5 C 6,1 km/h (2 Bft)
02.08.2012 20:55 17,4 C 89 % 0,0 l/m 4,2 km/h (1 Bft) O-SO 112 15,6 C 17,3 C 7,9 km/h (2 Bft)
02.08.2012 21:00 17,2 C 90 % 0,0 l/m 5,3 km/h (1 Bft) O-SO 112 15,5 C 17,1 C 0,0 km/h (0 Bft)
02.08.2012 21:05 16,9 C 90 % 1,4 l/m 3,9 km/h (1 Bft) W-NW 292 15,2 C 16,9 C 0,0 km/h (0 Bft)
02.08.2012 21:10 16,8 C 90 % 0,7 l/m 3,9 km/h (1 Bft) SO 135 15,1 C 16,8 C 7,6 km/h (2 Bft)
02.08.2012 21:15 16,5 C 90 % 0,0 l/m 3,4 km/h (1 Bft) O-SO 112 14,9 C 16,5 C 2,6 km/h (1 Bft)
02.08.2012 21:20 16,4 C 90 % 0,0 l/m 2,3 km/h (1 Bft) N-NW 337 14,8 C 16,5 C 0,0 km/h (0 Bft)
02.08.2012 21:25 16,5 C 91 % 0,0 l/m 1,3 km/h (1 Bft) W-NW 292 15,0 C 16,3 C 5,6 km/h (1 Bft)
02.08.2012 21:30 16,5 C 91 % 0,0 l/m 2,7 km/h (1 Bft) W-NW 292 15,0 C 16,3 C 5,0 km/h (1 Bft)
02.08.2012 21:35 16,5 C 91 % 0,0 l/m 3,4 km/h (1 Bft) N-NO 22 15,0 C 16,5 C 4,5 km/h (1 Bft)
02.08.2012 21:40 16,5 C 91 % 0,0 l/m 1,4 km/h (1 Bft) N-NW 337 15,0 C 16,5 C 0,0 km/h (0 Bft)
02.08.2012 21:45 16,4 C 91 % 1,4 l/m 2,7 km/h (1 Bft) W-NW 292 14,9 C 16,4 C 6,1 km/h (2 Bft)
02.08.2012 21:50 16,3 C 92 % 0,0 l/m 4,5 km/h (1 Bft) SO 135 15,0 C 16,3 C 6,9 km/h (2 Bft)
02.08.2012 21:55 16,4 C 92 % 0,0 l/m 4,2 km/h (1 Bft) S 180 15,1 C 16,3 C 0,0 km/h (0 Bft)
02.08.2012 22:00 16,5 C 92 % 0,0 l/m 3,7 km/h (1 Bft) N 360 15,2 C 16,3 C 5,3 km/h (1 Bft)
02.08.2012 22:05 16,5 C 92 % 0,0 l/m 3,1 km/h (1 Bft) N-NW 337 15,2 C 16,5 C 6,9 km/h (2 Bft)
02.08.2012 22:10 16,6 C 92 % 0,0 l/m 3,1 km/h (1 Bft) NW 315 15,3 C 16,5 C 3,5 km/h (1 Bft)
02.08.2012 22:15 16,5 C 92 % 0,0 l/m 1,9 km/h (1 Bft) W-NW 292 15,2 C 16,4 C 0,0 km/h (0 Bft)
02.08.2012 22:20 16,4 C 92 % 0,0 l/m 1,4 km/h (1 Bft) N-NW 337 15,1 C 16,3 C 2,1 km/h (1 Bft)
02.08.2012 22:25 16,2 C 92 % 0,0 l/m 1,8 km/h (1 Bft) W 270 14,9 C 16,1 C 7,2 km/h (2 Bft)
02.08.2012 22:30 16,0 C 92 % 0,0 l/m 2,4 km/h (1 Bft) W-NW 292 14,7 C 16,0 C 3,2 km/h (1 Bft)
02.08.2012 22:35 15,9 C 93 % 0,0 l/m 2,1 km/h (1 Bft) N-NW 337 14,8 C 15,8 C 4,2 km/h (1 Bft)
02.08.2012 22:40 15,9 C 93 % 0,0 l/m 1,4 km/h (1 Bft) N-NO 22 14,8 C 15,8 C 2,4 km/h (1 Bft)
02.08.2012 22:45 15,9 C 93 % 0,0 l/m 1,9 km/h (1 Bft) NO 45 14,8 C 15,8 C 0,0 km/h (0 Bft)
02.08.2012 22:50 15,9 C 93 % 0,0 l/m 1,1 km/h (1 Bft) N-NO 22 14,8 C 15,7 C 0,0 km/h (0 Bft)
02.08.2012 22:55 15,6 C 93 % 0,0 l/m 0,5 km/h (0 Bft) N 360 14,5 C 15,6 C 3,7 km/h (1 Bft)
02.08.2012 23:00 15,5 C 93 % 0,0 l/m 0,5 km/h (0 Bft) SO 135 14,4 C 15,5 C 0,0 km/h (0 Bft)
02.08.2012 23:05 15,4 C 93 % 0,0 l/m 0,3 km/h (0 Bft) S 180 14,3 C 15,4 C 0,0 km/h (0 Bft)
02.08.2012 23:10 15,4 C 93 % 0,0 l/m 0,0 km/h (0 Bft) N-NO 22 14,3 C 15,3 C 0,0 km/h (0 Bft)
02.08.2012 23:15 15,5 C 93 % 0,0 l/m 0,0 km/h (0 Bft) N 360 14,4 C 15,3 C 0,0 km/h (0 Bft)
02.08.2012 23:20 15,5 C 93 % 0,0 l/m 0,2 km/h (0 Bft) N 360 14,4 C 15,3 C 2,7 km/h (1 Bft)
02.08.2012 23:25 15,5 C 94 % 0,0 l/m 0,3 km/h (0 Bft) SW 225 14,5 C 15,3 C 0,0 km/h (0 Bft)
02.08.2012 23:30 15,6 C 93 % 0,0 l/m 0,8 km/h (0 Bft) O-NO 67 14,5 C 15,3 C 2,1 km/h (1 Bft)
02.08.2012 23:35 15,7 C 94 % 0,0 l/m 1,9 km/h (1 Bft) N-NW 337 14,7 C 15,5 C 3,2 km/h (1 Bft)
02.08.2012 23:40 15,8 C 94 % 0,0 l/m 2,4 km/h (1 Bft) N 360 14,8 C 15,6 C 0,0 km/h (0 Bft)
02.08.2012 23:45 15,9 C 94 % 0,0 l/m 2,1 km/h (1 Bft) NW 315 14,9 C 15,8 C 2,4 km/h (1 Bft)
02.08.2012 23:50 15,8 C 94 % 0,0 l/m 2,7 km/h (1 Bft) W-NW 292 14,8 C 15,7 C 9,2 km/h (2 Bft)
02.08.2012 23:55 15,7 C 94 % 0,0 l/m 2,6 km/h (1 Bft) N-NW 337 14,7 C 15,6 C 3,2 km/h (1 Bft)
_ Min-Zeit 02:05 15:05 - 23:15 - - 02:40 02:10 23:40
Minimum _ 13,8 C 37 % - 0,0 km/h (0 Bft) - - 10,5 C 13,5 C 0,0 km/h (0 Bft)
_ Max-Zeit 16:00 23:55 20:15 03:35 - - 09:10 14:00 03:10
Maximum _ 29,9 C 94 % 4,1 l/m 16,1 km/h
S-SO (3 Bft)
- - 16,9 C 32,4 C 38,1 km/h
SO (5 Bft)
Durchschnitt _ 21,8 C 62 % #8,2 l/m 2,7 km/h (1 Bft) S - 13,6 C 23,0 C 3,5 km/h (1 Bft)